createdAt,value
2023-05-10T00:01:06.610Z,7.95
2023-05-10T00:03:33.093Z,8.60
2023-05-10T00:05:59.701Z,8.55
2023-05-10T00:08:26.197Z,7.93
2023-05-10T00:10:53.627Z,8.13
2023-05-10T00:13:20.368Z,8.82
2023-05-10T00:15:46.845Z,8.15
2023-05-10T00:18:13.297Z,9.10
2023-05-10T00:20:39.738Z,8.95
2023-05-10T00:23:06.215Z,9.70
2023-05-10T00:25:32.703Z,11.10
2023-05-10T00:27:59.477Z,11.98
2023-05-10T00:30:26.009Z,11.13
2023-05-10T00:32:52.771Z,12.23
2023-05-10T00:35:19.391Z,12.77
2023-05-10T00:37:46.151Z,12.25
2023-05-10T00:40:12.920Z,12.57
2023-05-10T00:42:40.342Z,13.30
2023-05-10T00:45:08.197Z,14.05
2023-05-10T00:47:35.916Z,13.27
2023-05-10T00:50:02.900Z,14.50
2023-05-10T00:52:31.055Z,14.70
2023-05-10T00:54:59.239Z,15.02
2023-05-10T00:57:26.070Z,17.13
2023-05-10T00:59:52.844Z,16.23
2023-05-10T01:02:19.377Z,16.15
2023-05-10T01:04:46.006Z,17.50
2023-05-10T01:07:12.635Z,17.33
2023-05-10T01:09:39.400Z,17.85
2023-05-10T01:12:07.925Z,18.05
2023-05-10T01:14:37.090Z,17.52
2023-05-10T01:17:04.775Z,18.30
2023-05-10T01:19:32.735Z,17.13
2023-05-10T01:22:31.153Z,15.55
2023-05-10T01:25:20.913Z,16.58
2023-05-10T01:28:17.908Z,17.00
2023-05-10T01:31:19.341Z,16.95
2023-05-10T01:34:10.173Z,16.45
2023-05-10T01:36:46.695Z,16.98
2023-05-10T01:39:32.703Z,16.42
2023-05-10T01:42:07.241Z,16.52
2023-05-10T01:44:42.015Z,15.68
2023-05-10T01:49:47.380Z,14.85
2023-05-10T01:52:18.577Z,16.05
2023-05-10T01:54:51.144Z,16.92
2023-05-10T01:57:20.983Z,15.40
2023-05-10T01:59:51.801Z,16.95
2023-05-10T02:02:22.025Z,17.70
2023-05-10T02:04:51.889Z,18.15
2023-05-10T02:07:19.374Z,17.52
2023-05-10T02:09:49.787Z,17.58
2023-05-10T02:12:17.949Z,17.55
2023-05-10T02:14:45.852Z,17.65
2023-05-10T02:17:13.044Z,19.02
2023-05-10T02:19:42.971Z,17.92
2023-05-10T02:22:10.668Z,15.93
2023-05-10T02:24:39.401Z,17.67
2023-05-10T02:27:07.124Z,16.77
2023-05-10T02:29:34.565Z,16.98
2023-05-10T02:32:02.560Z,17.38
2023-05-10T02:34:30.970Z,18.70
2023-05-10T02:36:57.950Z,18.23
2023-05-10T02:39:26.394Z,16.75
2023-05-10T02:41:54.401Z,16.58
2023-05-10T02:44:21.515Z,17.02
2023-05-10T02:46:48.887Z,17.73
2023-05-10T02:49:16.334Z,17.75
2023-05-10T02:51:48.533Z,17.80
2023-05-10T02:54:28.476Z,18.17
2023-05-10T02:57:01.432Z,17.20
2023-05-10T02:59:28.668Z,17.67
2023-05-10T03:01:55.194Z,18.42
2023-05-10T03:04:21.659Z,19.05
2023-05-10T03:06:48.825Z,18.63
2023-05-10T03:09:16.706Z,19.33
2023-05-10T03:12:15.114Z,19.13
2023-05-10T03:14:53.817Z,19.77
2023-05-10T03:17:40.977Z,20.58
2023-05-10T03:20:11.289Z,21.13
2023-05-10T03:22:41.945Z,19.88
2023-05-10T03:25:11.365Z,19.80
2023-05-10T03:27:42.537Z,19.48
2023-05-10T03:30:11.520Z,20.23
2023-05-10T03:32:38.147Z,19.48
2023-05-10T03:35:09.609Z,19.67
2023-05-10T03:37:37.135Z,20.17
2023-05-10T03:40:04.116Z,18.95
2023-05-10T03:42:33.546Z,18.33
2023-05-10T03:45:00.190Z,19.60
2023-05-10T03:47:26.804Z,17.92
2023-05-10T03:49:53.326Z,19.02
2023-05-10T03:52:19.806Z,18.92
2023-05-10T03:54:46.301Z,18.55
2023-05-10T03:57:12.731Z,18.23
2023-05-10T03:59:39.498Z,18.52
2023-05-10T04:02:06.353Z,19.00
2023-05-10T04:04:32.857Z,18.17
2023-05-10T04:06:59.386Z,19.20
2023-05-10T04:09:26.240Z,19.58
2023-05-10T04:11:52.671Z,19.27
2023-05-10T04:14:19.203Z,19.55
2023-05-10T04:16:45.857Z,19.42
2023-05-10T04:19:12.606Z,21.23
2023-05-10T04:21:39.085Z,19.45
2023-05-10T04:24:05.804Z,18.33
2023-05-10T04:26:32.367Z,16.90
2023-05-10T04:28:58.847Z,18.23
2023-05-10T04:31:25.326Z,17.10
2023-05-10T04:33:51.894Z,17.58
2023-05-10T04:36:18.405Z,18.20
2023-05-10T04:38:44.939Z,18.77
2023-05-10T04:41:11.914Z,18.77
2023-05-10T04:43:39.004Z,18.02
2023-05-10T04:46:06.553Z,17.88
2023-05-10T04:48:33.073Z,18.58
2023-05-10T04:50:59.574Z,17.83
2023-05-10T04:53:26.083Z,17.95
2023-05-10T04:55:52.638Z,19.45
2023-05-10T04:58:19.174Z,18.65
2023-05-10T05:00:45.746Z,19.88
2023-05-10T05:03:12.316Z,18.65
2023-05-10T05:05:38.894Z,19.35
2023-05-10T05:08:05.605Z,19.08
2023-05-10T05:10:33.354Z,17.42
2023-05-10T05:12:59.919Z,18.08
2023-05-10T05:15:26.429Z,18.27
2023-05-10T05:17:53.103Z,19.13
2023-05-10T05:20:19.941Z,20.75
2023-05-10T05:22:46.429Z,19.33
2023-05-10T05:25:14.176Z,19.45
2023-05-10T05:27:40.737Z,19.60
2023-05-10T05:30:08.004Z,19.35
2023-05-10T05:32:34.826Z,19.02
2023-05-10T05:35:01.346Z,19.17
2023-05-10T05:37:27.777Z,18.35
2023-05-10T05:39:55.846Z,20.27
2023-05-10T05:42:22.414Z,19.77
2023-05-10T05:44:48.887Z,19.98
2023-05-10T05:47:15.618Z,19.85
2023-05-10T05:49:42.075Z,20.63
2023-05-10T05:52:08.551Z,18.50
2023-05-10T05:54:35.058Z,17.25
2023-05-10T05:57:01.827Z,18.25
2023-05-10T05:59:28.714Z,18.60
2023-05-10T06:01:55.680Z,18.73
2023-05-10T06:04:22.348Z,18.33
2023-05-10T06:06:48.989Z,18.50
2023-05-10T06:09:15.555Z,19.73
2023-05-10T06:11:42.011Z,16.77
2023-05-10T06:14:08.861Z,17.67
2023-05-10T06:16:35.692Z,17.58
2023-05-10T06:19:03.126Z,18.73
2023-05-10T06:21:29.819Z,18.83
2023-05-10T06:23:56.293Z,16.80
2023-05-10T06:26:22.814Z,17.73
2023-05-10T06:28:49.327Z,16.75
2023-05-10T06:31:16.115Z,18.02
2023-05-10T06:33:43.158Z,15.75
2023-05-10T06:36:09.986Z,16.00
2023-05-10T06:38:36.553Z,15.50
2023-05-10T06:41:02.975Z,15.00
2023-05-10T06:43:29.789Z,14.95
2023-05-10T06:45:56.780Z,14.18
2023-05-10T06:48:23.509Z,13.68
2023-05-10T06:50:50.411Z,12.85
2023-05-10T06:53:17.177Z,14.13
2023-05-10T06:55:43.647Z,11.85
2023-05-10T06:58:10.100Z,11.82
2023-05-10T07:00:40.116Z,11.02
2023-05-10T07:03:07.089Z,11.00
2023-05-10T07:05:33.638Z,9.80
2023-05-10T07:08:00.076Z,9.35
2023-05-10T07:10:26.588Z,9.38
2023-05-10T07:12:53.200Z,9.27
2023-05-10T07:15:20.270Z,8.50
2023-05-10T07:17:46.794Z,7.47
2023-05-10T07:20:13.809Z,7.80
2023-05-10T07:22:40.216Z,7.32
2023-05-10T07:25:07.285Z,7.90
2023-05-10T07:27:33.785Z,7.90
2023-05-10T07:30:02.531Z,7.63
2023-05-10T07:32:43.303Z,7.93
2023-05-10T07:35:09.914Z,6.95
2023-05-10T07:37:36.909Z,7.40
2023-05-10T07:40:03.625Z,7.10
2023-05-10T07:42:30.195Z,7.97
2023-05-10T07:44:56.915Z,7.65
2023-05-10T07:47:24.416Z,7.45
2023-05-10T07:49:50.987Z,7.18
2023-05-10T07:52:17.616Z,8.40
2023-05-10T07:54:44.303Z,7.63
2023-05-10T07:57:10.753Z,7.88
2023-05-10T07:59:37.386Z,7.72
2023-05-10T08:02:03.862Z,8.35
2023-05-10T08:04:30.675Z,7.28
2023-05-10T08:07:03.628Z,7.05
2023-05-10T08:09:30.281Z,7.13
2023-05-10T08:11:57.324Z,6.22
2023-05-10T08:14:23.822Z,7.15
2023-05-10T08:16:50.438Z,6.57
2023-05-10T08:19:20.063Z,6.53
2023-05-10T08:21:49.691Z,7.63
2023-05-10T08:24:16.275Z,7.70
2023-05-10T08:26:42.707Z,6.97
2023-05-10T08:29:09.162Z,7.65
2023-05-10T08:31:35.600Z,6.88
2023-05-10T08:34:02.311Z,7.85
2023-05-10T08:36:29.217Z,7.93
2023-05-10T08:38:55.896Z,7.57
2023-05-10T08:41:24.722Z,8.45
2023-05-10T08:46:20.005Z,7.60
2023-05-10T08:48:48.986Z,8.68
2023-05-10T08:51:19.125Z,7.68
2023-05-10T08:53:46.417Z,8.57
2023-05-10T08:56:13.119Z,7.75
2023-05-10T08:58:39.691Z,8.48
2023-05-10T09:01:06.754Z,8.20
2023-05-10T09:03:33.414Z,6.72
2023-05-10T09:05:59.982Z,7.60
2023-05-10T09:08:27.324Z,7.60
2023-05-10T09:10:55.662Z,6.97
2023-05-10T09:13:23.587Z,7.07
2023-05-10T09:15:50.734Z,6.95
2023-05-10T09:18:17.601Z,6.25
2023-05-10T09:20:44.196Z,6.35
2023-05-10T09:23:10.764Z,5.38
2023-05-10T09:25:39.459Z,5.45
2023-05-10T09:28:10.213Z,4.90
2023-05-10T09:30:37.012Z,4.40
2023-05-10T09:33:03.968Z,3.45
2023-05-10T09:35:33.162Z,3.42
2023-05-10T09:38:05.790Z,3.00
2023-05-10T09:40:32.642Z,3.83
2023-05-10T09:43:04.645Z,3.28
2023-05-10T09:45:32.893Z,3.47
2023-05-10T09:48:00.678Z,7.25
2023-05-10T09:50:27.793Z,5.20
2023-05-10T09:52:56.984Z,3.42
2023-05-10T09:55:25.592Z,3.15
2023-05-10T09:58:02.805Z,3.20
2023-05-10T10:00:35.763Z,3.30
2023-05-10T10:03:02.926Z,4.13
2023-05-10T10:05:34.062Z,3.88
2023-05-10T10:08:05.286Z,4.15
2023-05-10T10:10:33.319Z,4.28
2023-05-10T10:13:00.448Z,3.58
2023-05-10T10:15:27.120Z,4.40
2023-05-10T10:17:54.680Z,4.10
2023-05-10T10:20:23.116Z,3.95
2023-05-10T10:22:50.013Z,4.47
2023-05-10T10:25:18.424Z,3.92
2023-05-10T10:27:54.215Z,4.03
2023-05-10T10:30:29.306Z,4.30
2023-05-10T10:33:27.293Z,4.30
2023-05-10T10:35:56.535Z,4.20
2023-05-10T10:38:23.707Z,4.38
2023-05-10T10:41:03.429Z,4.07
2023-05-10T10:43:30.470Z,4.25
2023-05-10T10:46:14.317Z,4.47
2023-05-10T10:48:42.783Z,4.57
2023-05-10T10:51:10.849Z,4.75
2023-05-10T10:53:39.198Z,4.63
2023-05-10T10:56:10.548Z,4.22
2023-05-10T10:58:39.389Z,4.32
2023-05-10T11:01:19.249Z,4.30
2023-05-10T11:04:04.168Z,4.47
2023-05-10T11:06:35.478Z,4.07
2023-05-10T11:09:09.767Z,3.80
2023-05-10T11:11:37.853Z,3.92
2023-05-10T11:14:06.413Z,3.95
2023-05-10T11:16:44.304Z,3.92
2023-05-10T11:19:16.172Z,3.33
2023-05-10T11:22:13.823Z,3.95
2023-05-10T11:24:40.340Z,3.95
2023-05-10T11:27:07.160Z,4.18
2023-05-10T11:29:33.642Z,4.13
2023-05-10T11:32:01.351Z,3.83
2023-05-10T11:34:31.275Z,3.90
2023-05-10T11:36:58.337Z,3.88
2023-05-10T11:39:29.394Z,3.95
2023-05-10T11:41:56.592Z,3.60
2023-05-10T11:44:23.521Z,4.25
2023-05-10T11:46:50.728Z,3.85
2023-05-10T11:49:17.204Z,3.38
2023-05-10T11:51:44.411Z,3.30
2023-05-10T11:54:12.101Z,3.00
2023-05-10T11:56:40.170Z,3.35
2023-05-10T11:59:07.396Z,3.08
2023-05-10T12:01:34.749Z,2.95
2023-05-10T12:04:02.007Z,3.17
2023-05-10T12:06:31.907Z,2.95
2023-05-10T12:08:58.816Z,2.83
2023-05-10T12:11:27.206Z,2.90
2023-05-10T12:13:54.397Z,2.88
2023-05-10T12:16:29.766Z,2.80
2023-05-10T12:19:01.610Z,2.67
2023-05-10T12:21:34.265Z,2.03
2023-05-10T12:24:03.375Z,2.35
2023-05-10T12:26:30.446Z,2.22
2023-05-10T12:29:13.306Z,2.13
2023-05-10T12:31:57.651Z,2.58
2023-05-10T12:34:26.749Z,2.83
2023-05-10T12:36:54.883Z,2.83
2023-05-10T12:39:21.299Z,2.33
2023-05-10T12:41:47.747Z,2.15
2023-05-10T12:44:15.674Z,1.75
2023-05-10T12:46:42.183Z,2.10
2023-05-10T12:49:09.764Z,2.28
2023-05-10T12:51:36.458Z,1.90
2023-05-10T12:54:03.872Z,2.00
2023-05-10T12:56:30.362Z,1.80
2023-05-10T12:58:56.819Z,2.33
2023-05-10T13:01:23.342Z,1.83
2023-05-10T13:03:52.968Z,1.80
2023-05-10T13:06:19.448Z,2.17
2023-05-10T13:08:45.866Z,2.15
2023-05-10T13:11:12.341Z,2.20
2023-05-10T13:13:38.750Z,1.90
2023-05-10T13:16:05.600Z,2.08
2023-05-10T13:18:32.135Z,1.50
2023-05-10T13:20:59.083Z,2.20
2023-05-10T13:23:25.605Z,2.38
2023-05-10T13:25:52.086Z,3.42
2023-05-10T13:28:18.483Z,3.88
2023-05-10T13:30:45.072Z,4.28
2023-05-10T13:33:11.587Z,3.83
2023-05-10T13:35:38.073Z,4.50
2023-05-10T13:38:04.509Z,4.32
2023-05-10T13:40:30.984Z,3.70
2023-05-10T13:42:57.416Z,4.28
2023-05-10T13:45:23.956Z,4.30
2023-05-10T13:47:50.785Z,4.35
2023-05-10T13:50:17.891Z,4.75
2023-05-10T13:52:44.503Z,4.00
2023-05-10T13:55:13.285Z,3.83
2023-05-10T13:57:39.723Z,4.60
2023-05-10T14:00:06.860Z,4.55
2023-05-10T14:02:35.023Z,4.45
2023-05-10T14:05:02.266Z,4.55
2023-05-10T14:07:28.655Z,4.32
2023-05-10T14:09:55.091Z,4.03
2023-05-10T14:12:21.564Z,4.57
2023-05-10T14:14:47.966Z,4.32
2023-05-10T14:17:14.511Z,4.60
2023-05-10T14:19:40.967Z,4.10
2023-05-10T14:22:07.454Z,4.00
2023-05-10T14:24:33.978Z,4.60
2023-05-10T14:27:01.078Z,4.72
2023-05-10T14:29:28.041Z,4.43
2023-05-10T14:31:56.195Z,5.07
2023-05-10T14:34:22.763Z,5.03
2023-05-10T14:36:49.255Z,4.90
2023-05-10T14:39:15.896Z,4.68
2023-05-10T14:41:43.872Z,5.10
2023-05-10T14:44:10.959Z,4.88
2023-05-10T14:46:37.784Z,4.57
2023-05-10T14:49:04.295Z,4.70
2023-05-10T14:51:30.759Z,5.15
2023-05-10T14:53:57.352Z,4.57
2023-05-10T14:56:23.805Z,4.65
2023-05-10T14:58:51.038Z,4.97
2023-05-10T15:01:18.120Z,5.35
2023-05-10T15:03:45.248Z,5.13
2023-05-10T15:06:12.672Z,4.90
2023-05-10T15:08:39.116Z,5.45
2023-05-10T15:11:05.768Z,5.50
2023-05-10T15:13:32.194Z,4.90
2023-05-10T15:15:58.702Z,4.93
2023-05-10T15:18:25.379Z,5.40
2023-05-10T15:20:52.255Z,5.20
2023-05-10T15:23:18.926Z,5.43
2023-05-10T15:25:45.428Z,5.07
2023-05-10T15:28:11.910Z,5.50
2023-05-10T15:30:38.606Z,5.60
2023-05-10T15:33:05.196Z,5.35
2023-05-10T15:35:31.758Z,5.00
2023-05-10T15:37:58.171Z,5.38
2023-05-10T15:40:24.634Z,5.15
2023-05-10T15:42:51.188Z,5.00
2023-05-10T15:45:17.995Z,4.45
2023-05-10T15:47:45.535Z,4.43
2023-05-10T15:50:12.809Z,3.90
2023-05-10T15:52:39.456Z,3.92
2023-05-10T15:55:12.670Z,3.50
2023-05-10T15:57:40.846Z,4.07
2023-05-10T16:00:09.120Z,3.78
2023-05-10T16:02:44.358Z,4.72
2023-05-10T16:05:11.020Z,4.07
2023-05-10T16:07:37.462Z,4.32
2023-05-10T16:10:06.432Z,3.95
2023-05-10T16:12:33.134Z,3.92
2023-05-10T16:14:59.618Z,4.05
2023-05-10T16:17:26.334Z,4.10
2023-05-10T16:19:52.890Z,3.97
2023-05-10T16:22:19.439Z,3.97
2023-05-10T16:24:45.910Z,4.10
2023-05-10T16:27:13.219Z,4.15
2023-05-10T16:29:39.699Z,4.63
2023-05-10T16:32:06.386Z,3.88
2023-05-10T16:34:32.908Z,4.40
2023-05-10T16:36:59.313Z,4.85
2023-05-10T16:39:25.963Z,4.25
2023-05-10T16:41:52.413Z,4.30
2023-05-10T16:44:20.593Z,4.20
2023-05-10T16:49:14.521Z,3.88
2023-05-10T16:51:41.182Z,4.35
2023-05-10T16:54:07.957Z,4.32
2023-05-10T16:56:34.410Z,4.15
2023-05-10T16:59:00.919Z,4.03
2023-05-10T17:01:27.706Z,3.95
2023-05-10T17:03:54.259Z,3.15
2023-05-10T17:06:20.677Z,3.42
2023-05-10T17:08:47.317Z,3.40
2023-05-10T17:11:13.774Z,3.47
2023-05-10T17:13:40.432Z,3.17
2023-05-10T17:16:08.287Z,3.03
2023-05-10T17:18:34.921Z,3.50
2023-05-10T17:21:01.543Z,2.97
2023-05-10T17:23:28.090Z,2.65
2023-05-10T17:25:54.538Z,2.92
2023-05-10T17:28:20.986Z,2.72
2023-05-10T17:30:47.574Z,2.70
2023-05-10T17:33:14.028Z,2.35
2023-05-10T17:35:40.543Z,2.58
2023-05-10T17:38:07.062Z,2.65
2023-05-10T17:40:33.534Z,2.92
2023-05-10T17:43:00.146Z,3.00
2023-05-10T17:45:26.785Z,3.17
2023-05-10T17:47:53.359Z,3.38
2023-05-10T17:50:19.917Z,3.33
2023-05-10T17:52:46.696Z,3.30
2023-05-10T17:55:13.313Z,3.40
2023-05-10T17:57:39.837Z,3.42
2023-05-10T18:00:08.733Z,3.45
2023-05-10T18:02:36.668Z,3.85
2023-05-10T18:05:04.409Z,3.92
2023-05-10T18:07:31.433Z,4.30
2023-05-10T18:09:58.393Z,3.75
2023-05-10T18:12:24.993Z,4.10
2023-05-10T18:14:51.591Z,3.92
2023-05-10T18:17:18.236Z,4.18
2023-05-10T18:19:44.673Z,4.03
2023-05-10T18:22:11.293Z,4.63
2023-05-10T18:24:39.553Z,4.30
2023-05-10T18:27:08.975Z,4.00
2023-05-10T18:29:36.605Z,4.20
2023-05-10T18:32:03.079Z,4.78
2023-05-10T18:34:29.496Z,4.53
2023-05-10T18:36:56.227Z,5.65
2023-05-10T18:39:22.771Z,5.00
2023-05-10T18:41:50.167Z,4.80
2023-05-10T18:44:16.684Z,5.18
2023-05-10T18:46:43.502Z,5.15
2023-05-10T18:49:10.055Z,4.78
2023-05-10T18:51:36.472Z,4.45
2023-05-10T18:54:02.994Z,4.80
2023-05-10T18:56:29.635Z,4.95
2023-05-10T18:58:56.510Z,4.90
2023-05-10T19:01:23.009Z,5.03
2023-05-10T19:03:49.492Z,5.00
2023-05-10T19:06:16.070Z,5.25
2023-05-10T19:08:42.618Z,5.15
2023-05-10T19:11:09.142Z,4.75
2023-05-10T19:13:35.770Z,5.03
2023-05-10T19:16:10.093Z,5.40
2023-05-10T19:18:36.651Z,4.90
2023-05-10T19:21:05.664Z,5.97
2023-05-10T19:23:33.117Z,4.82
2023-05-10T19:26:00.008Z,5.95
2023-05-10T19:28:26.810Z,6.03
2023-05-10T19:30:53.458Z,5.50
2023-05-10T19:33:20.002Z,5.65
2023-05-10T19:35:46.730Z,6.10
2023-05-10T19:38:13.206Z,6.28
2023-05-10T19:40:39.632Z,5.55
2023-05-10T19:43:06.077Z,6.50
2023-05-10T19:45:37.189Z,6.07
2023-05-10T19:48:03.901Z,6.15
2023-05-10T19:50:30.473Z,6.68
2023-05-10T19:52:58.369Z,5.70
2023-05-10T19:55:32.032Z,5.95
2023-05-10T19:58:00.652Z,5.93
2023-05-10T20:00:27.648Z,6.57
2023-05-10T20:02:54.645Z,6.20
2023-05-10T20:05:21.950Z,5.90
2023-05-10T20:07:48.829Z,5.88
2023-05-10T20:10:16.634Z,5.50
2023-05-10T20:12:54.127Z,6.05
2023-05-10T20:15:22.917Z,6.22
2023-05-10T20:17:52.945Z,6.10
2023-05-10T20:20:20.744Z,6.38
2023-05-10T20:22:48.382Z,6.25
2023-05-10T20:25:15.883Z,6.18
2023-05-10T20:27:42.753Z,6.50
2023-05-10T20:30:10.269Z,6.10
2023-05-10T20:32:37.479Z,6.68
2023-05-10T20:35:04.793Z,5.85
2023-05-10T20:37:31.615Z,6.43
2023-05-10T20:39:58.231Z,6.50
2023-05-10T20:42:25.885Z,6.82
2023-05-10T20:44:52.397Z,6.47
2023-05-10T20:47:19.157Z,6.50
2023-05-10T20:49:46.019Z,6.50
2023-05-10T20:52:12.626Z,6.63
2023-05-10T20:54:39.077Z,6.20
2023-05-10T20:57:05.718Z,6.82
2023-05-10T20:59:32.289Z,6.13
2023-05-10T21:01:58.979Z,6.63
2023-05-10T21:04:25.843Z,7.05
2023-05-10T21:06:53.228Z,6.60
2023-05-10T21:09:19.759Z,6.93
2023-05-10T21:11:46.418Z,6.40
2023-05-10T21:14:12.993Z,6.68
2023-05-10T21:16:39.504Z,7.30
2023-05-10T21:19:07.393Z,7.10
2023-05-10T21:21:34.521Z,6.50
2023-05-10T21:24:01.210Z,6.40
2023-05-10T21:26:27.678Z,6.75
2023-05-10T21:28:54.253Z,6.65
2023-05-10T21:31:20.713Z,6.40
2023-05-10T21:33:47.426Z,6.13
2023-05-10T21:36:13.984Z,5.70
2023-05-10T21:38:40.989Z,6.38
2023-05-10T21:41:08.061Z,6.18
2023-05-10T21:43:34.612Z,5.63
2023-05-10T21:46:01.437Z,5.72
2023-05-10T21:48:28.049Z,6.30
2023-05-10T21:50:54.588Z,6.63
2023-05-10T21:53:22.146Z,6.50
2023-05-10T21:55:48.621Z,6.20
2023-05-10T21:58:15.173Z,6.22
2023-05-10T22:00:41.600Z,5.60
2023-05-10T22:03:08.220Z,6.28
2023-05-10T22:05:34.903Z,5.90
2023-05-10T22:08:01.394Z,6.00
2023-05-10T22:10:27.918Z,5.97
2023-05-10T22:12:54.410Z,6.07
2023-05-10T22:15:20.899Z,6.00
2023-05-10T22:17:47.491Z,6.10
2023-05-10T22:20:14.186Z,6.93
2023-05-10T22:22:40.675Z,5.90
2023-05-10T22:25:07.770Z,6.15
2023-05-10T22:27:34.592Z,6.50
2023-05-10T22:30:01.396Z,6.18
2023-05-10T22:32:28.067Z,7.15
2023-05-10T22:34:54.599Z,6.82
2023-05-10T22:37:21.084Z,6.20
2023-05-10T22:39:48.514Z,6.18
2023-05-10T22:42:15.003Z,6.53
2023-05-10T22:44:41.968Z,5.88
2023-05-10T22:47:08.998Z,6.22
2023-05-10T22:49:35.519Z,6.57
2023-05-10T22:52:02.334Z,6.70
2023-05-10T22:54:28.815Z,6.65
2023-05-10T22:56:56.399Z,6.45
2023-05-10T22:59:23.054Z,6.35
2023-05-10T23:01:49.570Z,7.18
2023-05-10T23:04:16.312Z,7.13
2023-05-10T23:06:42.809Z,6.53
2023-05-10T23:09:09.791Z,6.95
2023-05-10T23:11:36.553Z,7.43
2023-05-10T23:14:03.291Z,7.25
2023-05-10T23:16:30.466Z,7.22
2023-05-10T23:18:57.024Z,6.53
2023-05-10T23:21:25.059Z,6.97
2023-05-10T23:23:51.508Z,6.18
2023-05-10T23:26:17.998Z,7.22
2023-05-10T23:28:44.473Z,7.25
2023-05-10T23:31:10.997Z,7.03
2023-05-10T23:33:37.630Z,7.30
2023-05-10T23:36:04.193Z,7.65
2023-05-10T23:38:30.676Z,7.07
2023-05-10T23:40:57.234Z,7.72
2023-05-10T23:43:25.210Z,8.00
2023-05-10T23:45:56.455Z,8.18
2023-05-10T23:48:23.414Z,7.32
2023-05-10T23:50:49.981Z,7.50
2023-05-10T23:53:16.862Z,8.50
2023-05-10T23:55:43.511Z,8.10
2023-05-10T23:58:10.055Z,8.13
